sensor_id;sensor_type;location;lat;lon;timestamp;temperature;humidity
25582;DHT22;13462;50.764;4.332;2023-04-01T00:01:18;9.60;99.90
25582;DHT22;13462;50.764;4.332;2023-04-01T00:03:44;9.60;99.90
25582;DHT22;13462;50.764;4.332;2023-04-01T00:06:11;9.50;99.90
25582;DHT22;13462;50.764;4.332;2023-04-01T00:08:37;9.50;99.90
25582;DHT22;13462;50.764;4.332;2023-04-01T00:11:03;9.60;99.90
25582;DHT22;13462;50.764;4.332;2023-04-01T00:13:28;9.50;99.90
25582;DHT22;13462;50.764;4.332;2023-04-01T00:15:54;9.60;99.90
25582;DHT22;13462;50.764;4.332;2023-04-01T00:18:20;9.50;99.90
25582;DHT22;13462;50.764;4.332;2023-04-01T00:20:46;9.50;99.90
25582;DHT22;13462;50.764;4.332;2023-04-01T00:23:12;9.60;99.90
25582;DHT22;13462;50.764;4.332;2023-04-01T00:25:38;9.50;99.90
25582;DHT22;13462;50.764;4.332;2023-04-01T00:28:03;9.50;99.90
25582;DHT22;13462;50.764;4.332;2023-04-01T00:30:29;9.50;99.90
25582;DHT22;13462;50.764;4.332;2023-04-01T00:32:54;9.50;99.90
25582;DHT22;13462;50.764;4.332;2023-04-01T00:35:20;9.50;99.90
25582;DHT22;13462;50.764;4.332;2023-04-01T00:37:45;9.50;99.90
25582;DHT22;13462;50.764;4.332;2023-04-01T00:40:26;9.50;99.90
25582;DHT22;13462;50.764;4.332;2023-04-01T00:42:52;9.50;99.90
25582;DHT22;13462;50.764;4.332;2023-04-01T00:45:28;9.60;99.90
25582;DHT22;13462;50.764;4.332;2023-04-01T00:47:55;9.50;99.90
25582;DHT22;13462;50.764;4.332;2023-04-01T00:50:22;9.50;99.90
25582;DHT22;13462;50.764;4.332;2023-04-01T00:52:50;9.50;99.90
25582;DHT22;13462;50.764;4.332;2023-04-01T00:55:15;9.60;99.90
25582;DHT22;13462;50.764;4.332;2023-04-01T00:57:42;9.50;99.90
25582;DHT22;13462;50.764;4.332;2023-04-01T01:00:10;9.60;99.90
25582;DHT22;13462;50.764;4.332;2023-04-01T01:02:36;9.60;99.90
25582;DHT22;13462;50.764;4.332;2023-04-01T01:05:02;9.70;99.90
25582;DHT22;13462;50.764;4.332;2023-04-01T01:15:08;9.70;99.90
25582;DHT22;13462;50.764;4.332;2023-04-01T01:20:22;9.70;99.90
25582;DHT22;13462;50.764;4.332;2023-04-01T01:25:38;9.70;99.90
25582;DHT22;13462;50.764;4.332;2023-04-01T01:33:21;9.70;99.90
25582;DHT22;13462;50.764;4.332;2023-04-01T01:35:50;9.60;99.90
25582;DHT22;13462;50.764;4.332;2023-04-01T01:38:17;9.60;99.90
25582;DHT22;13462;50.764;4.332;2023-04-01T01:40:44;9.60;99.90
25582;DHT22;13462;50.764;4.332;2023-04-01T01:43:11;9.60;99.90
25582;DHT22;13462;50.764;4.332;2023-04-01T01:45:40;9.60;99.90
25582;DHT22;13462;50.764;4.332;2023-04-01T01:48:08;9.60;99.90
25582;DHT22;13462;50.764;4.332;2023-04-01T01:50:34;9.70;99.90
25582;DHT22;13462;50.764;4.332;2023-04-01T01:53:01;9.60;99.90
25582;DHT22;13462;50.764;4.332;2023-04-01T01:57:52;9.70;99.90
25582;DHT22;13462;50.764;4.332;2023-04-01T02:00:20;9.80;99.90
25582;DHT22;13462;50.764;4.332;2023-04-01T02:02:46;9.80;99.90
25582;DHT22;13462;50.764;4.332;2023-04-01T02:05:15;9.80;99.90
25582;DHT22;13462;50.764;4.332;2023-04-01T02:07:41;9.70;99.90
25582;DHT22;13462;50.764;4.332;2023-04-01T02:10:08;9.80;99.90
25582;DHT22;13462;50.764;4.332;2023-04-01T02:12:34;9.80;99.90
25582;DHT22;13462;50.764;4.332;2023-04-01T02:15:04;9.80;99.90
25582;DHT22;13462;50.764;4.332;2023-04-01T02:17:30;9.80;99.90
25582;DHT22;13462;50.764;4.332;2023-04-01T02:19:58;9.70;99.90
25582;DHT22;13462;50.764;4.332;2023-04-01T02:22:26;9.70;99.90
25582;DHT22;13462;50.764;4.332;2023-04-01T02:24:53;9.70;99.90
25582;DHT22;13462;50.764;4.332;2023-04-01T02:27:20;9.80;99.90
25582;DHT22;13462;50.764;4.332;2023-04-01T02:29:46;9.70;99.90
25582;DHT22;13462;50.764;4.332;2023-04-01T02:32:12;9.60;99.90
25582;DHT22;13462;50.764;4.332;2023-04-01T02:34:38;9.70;99.90
25582;DHT22;13462;50.764;4.332;2023-04-01T02:37:03;9.70;99.90
25582;DHT22;13462;50.764;4.332;2023-04-01T02:39:29;9.80;99.90
25582;DHT22;13462;50.764;4.332;2023-04-01T02:41:54;9.70;99.90
25582;DHT22;13462;50.764;4.332;2023-04-01T02:44:20;9.60;99.90
25582;DHT22;13462;50.764;4.332;2023-04-01T02:46:45;9.60;99.90
25582;DHT22;13462;50.764;4.332;2023-04-01T02:49:11;9.60;99.90
25582;DHT22;13462;50.764;4.332;2023-04-01T02:51:36;9.50;99.90
25582;DHT22;13462;50.764;4.332;2023-04-01T02:54:02;9.50;99.90
25582;DHT22;13462;50.764;4.332;2023-04-01T02:56:28;9.50;99.90
25582;DHT22;13462;50.764;4.332;2023-04-01T02:58:53;9.60;99.90
25582;DHT22;13462;50.764;4.332;2023-04-01T03:01:19;9.40;99.90
25582;DHT22;13462;50.764;4.332;2023-04-01T03:03:44;9.30;99.90
25582;DHT22;13462;50.764;4.332;2023-04-01T03:06:11;9.30;99.90
25582;DHT22;13462;50.764;4.332;2023-04-01T03:08:37;9.40;99.90
25582;DHT22;13462;50.764;4.332;2023-04-01T03:11:03;9.40;99.90
25582;DHT22;13462;50.764;4.332;2023-04-01T03:13:29;9.40;99.90
25582;DHT22;13462;50.764;4.332;2023-04-01T03:15:54;9.40;99.90
25582;DHT22;13462;50.764;4.332;2023-04-01T03:18:19;9.40;99.90
25582;DHT22;13462;50.764;4.332;2023-04-01T03:20:45;9.40;99.90
25582;DHT22;13462;50.764;4.332;2023-04-01T03:23:11;9.50;99.90
25582;DHT22;13462;50.764;4.332;2023-04-01T03:25:36;9.50;99.90
25582;DHT22;13462;50.764;4.332;2023-04-01T03:28:02;9.50;99.90
25582;DHT22;13462;50.764;4.332;2023-04-01T03:30:28;9.40;99.90
25582;DHT22;13462;50.764;4.332;2023-04-01T03:32:55;9.40;99.90
25582;DHT22;13462;50.764;4.332;2023-04-01T03:35:21;9.40;99.90
25582;DHT22;13462;50.764;4.332;2023-04-01T03:37:46;9.40;99.90
25582;DHT22;13462;50.764;4.332;2023-04-01T03:40:12;9.40;99.90
25582;DHT22;13462;50.764;4.332;2023-04-01T03:42:37;9.40;99.90
25582;DHT22;13462;50.764;4.332;2023-04-01T03:45:03;9.40;99.90
25582;DHT22;13462;50.764;4.332;2023-04-01T03:47:29;9.40;99.90
25582;DHT22;13462;50.764;4.332;2023-04-01T03:49:55;9.50;99.90
25582;DHT22;13462;50.764;4.332;2023-04-01T03:52:21;9.40;99.90
25582;DHT22;13462;50.764;4.332;2023-04-01T03:54:46;9.40;99.90
25582;DHT22;13462;50.764;4.332;2023-04-01T03:57:12;9.40;99.90
25582;DHT22;13462;50.764;4.332;2023-04-01T03:59:37;9.40;99.90
25582;DHT22;13462;50.764;4.332;2023-04-01T04:02:03;9.40;99.90
25582;DHT22;13462;50.764;4.332;2023-04-01T04:04:28;9.40;99.90
25582;DHT22;13462;50.764;4.332;2023-04-01T04:06:54;9.40;99.90
25582;DHT22;13462;50.764;4.332;2023-04-01T04:09:20;9.40;99.90
25582;DHT22;13462;50.764;4.332;2023-04-01T04:11:45;9.40;99.90
25582;DHT22;13462;50.764;4.332;2023-04-01T04:14:11;9.40;99.90
25582;DHT22;13462;50.764;4.332;2023-04-01T04:16:36;9.40;99.90
25582;DHT22;13462;50.764;4.332;2023-04-01T04:19:02;9.30;99.90
25582;DHT22;13462;50.764;4.332;2023-04-01T04:21:28;9.30;99.90
25582;DHT22;13462;50.764;4.332;2023-04-01T04:23:53;9.40;99.90
25582;DHT22;13462;50.764;4.332;2023-04-01T04:26:19;9.40;99.90
25582;DHT22;13462;50.764;4.332;2023-04-01T04:28:44;9.40;99.90
25582;DHT22;13462;50.764;4.332;2023-04-01T04:31:10;9.30;99.90
25582;DHT22;13462;50.764;4.332;2023-04-01T04:33:35;9.30;99.90
25582;DHT22;13462;50.764;4.332;2023-04-01T04:36:01;9.20;99.90
25582;DHT22;13462;50.764;4.332;2023-04-01T04:38:27;9.30;99.90
25582;DHT22;13462;50.764;4.332;2023-04-01T04:40:53;9.30;99.90
25582;DHT22;13462;50.764;4.332;2023-04-01T04:43:18;9.30;99.90
25582;DHT22;13462;50.764;4.332;2023-04-01T04:45:44;9.30;99.90
25582;DHT22;13462;50.764;4.332;2023-04-01T04:48:10;9.30;99.90
25582;DHT22;13462;50.764;4.332;2023-04-01T04:50:39;9.30;99.90
25582;DHT22;13462;50.764;4.332;2023-04-01T04:53:05;9.30;99.90
25582;DHT22;13462;50.764;4.332;2023-04-01T04:55:30;9.40;99.90
25582;DHT22;13462;50.764;4.332;2023-04-01T04:57:56;9.40;99.90
25582;DHT22;13462;50.764;4.332;2023-04-01T05:00:21;9.30;99.90
25582;DHT22;13462;50.764;4.332;2023-04-01T05:02:47;9.30;99.90
25582;DHT22;13462;50.764;4.332;2023-04-01T05:05:12;9.30;99.90
25582;DHT22;13462;50.764;4.332;2023-04-01T05:07:38;9.40;99.90
25582;DHT22;13462;50.764;4.332;2023-04-01T05:10:03;9.40;99.90
25582;DHT22;13462;50.764;4.332;2023-04-01T05:12:29;9.40;99.90
25582;DHT22;13462;50.764;4.332;2023-04-01T05:14:56;9.50;99.90
25582;DHT22;13462;50.764;4.332;2023-04-01T05:17:21;9.60;99.90
25582;DHT22;13462;50.764;4.332;2023-04-01T05:19:46;9.60;99.90
25582;DHT22;13462;50.764;4.332;2023-04-01T05:22:12;9.50;99.90
25582;DHT22;13462;50.764;4.332;2023-04-01T05:24:37;9.50;99.90
25582;DHT22;13462;50.764;4.332;2023-04-01T05:27:03;9.40;99.90
25582;DHT22;13462;50.764;4.332;2023-04-01T05:29:28;9.40;99.90
25582;DHT22;13462;50.764;4.332;2023-04-01T05:31:54;9.30;99.90
25582;DHT22;13462;50.764;4.332;2023-04-01T05:34:19;9.40;99.90
25582;DHT22;13462;50.764;4.332;2023-04-01T05:36:45;9.40;99.90
25582;DHT22;13462;50.764;4.332;2023-04-01T05:39:10;9.20;99.90
25582;DHT22;13462;50.764;4.332;2023-04-01T05:41:36;9.30;99.90
25582;DHT22;13462;50.764;4.332;2023-04-01T05:44:02;9.30;99.90
25582;DHT22;13462;50.764;4.332;2023-04-01T05:46:28;9.30;99.90
25582;DHT22;13462;50.764;4.332;2023-04-01T05:48:53;9.30;99.90
25582;DHT22;13462;50.764;4.332;2023-04-01T05:51:19;9.30;99.90
25582;DHT22;13462;50.764;4.332;2023-04-01T05:53:44;9.30;99.90
25582;DHT22;13462;50.764;4.332;2023-04-01T05:56:10;9.30;99.90
25582;DHT22;13462;50.764;4.332;2023-04-01T05:58:36;9.20;99.90
25582;DHT22;13462;50.764;4.332;2023-04-01T06:01:02;9.20;99.90
25582;DHT22;13462;50.764;4.332;2023-04-01T06:03:28;9.30;99.90
25582;DHT22;13462;50.764;4.332;2023-04-01T06:05:54;9.30;99.90
25582;DHT22;13462;50.764;4.332;2023-04-01T06:08:19;9.40;99.90
25582;DHT22;13462;50.764;4.332;2023-04-01T06:10:52;9.40;99.90
25582;DHT22;13462;50.764;4.332;2023-04-01T06:13:24;9.30;99.90
25582;DHT22;13462;50.764;4.332;2023-04-01T06:15:59;9.30;99.90
25582;DHT22;13462;50.764;4.332;2023-04-01T06:18:32;9.40;99.90
25582;DHT22;13462;50.764;4.332;2023-04-01T06:23:54;9.50;99.90
25582;DHT22;13462;50.764;4.332;2023-04-01T06:26:39;9.50;99.90
25582;DHT22;13462;50.764;4.332;2023-04-01T06:34:21;9.30;99.90
25582;DHT22;13462;50.764;4.332;2023-04-01T06:37:02;9.30;99.90
25582;DHT22;13462;50.764;4.332;2023-04-01T06:39:36;9.40;99.90
25582;DHT22;13462;50.764;4.332;2023-04-01T06:50:07;9.20;99.90
25582;DHT22;13462;50.764;4.332;2023-04-01T06:55:09;9.20;99.90
25582;DHT22;13462;50.764;4.332;2023-04-01T06:57:41;9.20;99.90
25582;DHT22;13462;50.764;4.332;2023-04-01T07:00:12;9.20;99.90
25582;DHT22;13462;50.764;4.332;2023-04-01T07:02:40;9.20;99.90
25582;DHT22;13462;50.764;4.332;2023-04-01T07:05:07;9.20;99.90
25582;DHT22;13462;50.764;4.332;2023-04-01T07:07:36;9.30;99.90
25582;DHT22;13462;50.764;4.332;2023-04-01T07:10:05;9.30;99.90
25582;DHT22;13462;50.764;4.332;2023-04-01T07:14:57;9.30;99.90
25582;DHT22;13462;50.764;4.332;2023-04-01T07:17:27;9.40;99.90
25582;DHT22;13462;50.764;4.332;2023-04-01T07:20:04;9.30;99.90
25582;DHT22;13462;50.764;4.332;2023-04-01T07:22:35;9.30;99.90
25582;DHT22;13462;50.764;4.332;2023-04-01T07:25:12;9.40;99.90
25582;DHT22;13462;50.764;4.332;2023-04-01T07:27:38;9.30;99.90
25582;DHT22;13462;50.764;4.332;2023-04-01T07:30:13;9.40;99.90
25582;DHT22;13462;50.764;4.332;2023-04-01T07:32:41;9.50;99.90
25582;DHT22;13462;50.764;4.332;2023-04-01T07:35:17;9.50;99.90
25582;DHT22;13462;50.764;4.332;2023-04-01T07:40:39;9.60;99.90
25582;DHT22;13462;50.764;4.332;2023-04-01T07:46:00;9.50;99.90
25582;DHT22;13462;50.764;4.332;2023-04-01T07:51:05;9.50;99.90
25582;DHT22;13462;50.764;4.332;2023-04-01T07:53:36;9.50;99.90
25582;DHT22;13462;50.764;4.332;2023-04-01T08:01:02;9.60;99.90
25582;DHT22;13462;50.764;4.332;2023-04-01T08:06:12;9.70;99.90
25582;DHT22;13462;50.764;4.332;2023-04-01T08:08:59;9.60;99.90
25582;DHT22;13462;50.764;4.332;2023-04-01T08:13:56;9.70;99.90
25582;DHT22;13462;50.764;4.332;2023-04-01T08:16:31;9.80;99.90
25582;DHT22;13462;50.764;4.332;2023-04-01T08:21:32;10.00;99.90
25582;DHT22;13462;50.764;4.332;2023-04-01T08:24:02;10.10;99.90
25582;DHT22;13462;50.764;4.332;2023-04-01T08:26:42;10.10;99.90
25582;DHT22;13462;50.764;4.332;2023-04-01T08:29:24;10.00;99.90
25582;DHT22;13462;50.764;4.332;2023-04-01T08:31:58;10.20;99.90
25582;DHT22;13462;50.764;4.332;2023-04-01T08:34:26;10.00;99.90
25582;DHT22;13462;50.764;4.332;2023-04-01T08:37:11;10.00;99.90
25582;DHT22;13462;50.764;4.332;2023-04-01T08:39:38;10.10;99.90
25582;DHT22;13462;50.764;4.332;2023-04-01T08:42:12;10.00;99.90
25582;DHT22;13462;50.764;4.332;2023-04-01T08:50:19;10.30;99.90
25582;DHT22;13462;50.764;4.332;2023-04-01T09:11:03;10.10;99.90
25582;DHT22;13462;50.764;4.332;2023-04-01T09:16:08;10.10;99.90
25582;DHT22;13462;50.764;4.332;2023-04-01T09:31:59;10.50;99.90
25582;DHT22;13462;50.764;4.332;2023-04-01T09:37:10;10.50;99.90
25582;DHT22;13462;50.764;4.332;2023-04-01T09:40:30;10.60;99.90
25582;DHT22;13462;50.764;4.332;2023-04-01T09:55:12;11.20;99.90
25582;DHT22;13462;50.764;4.332;2023-04-01T10:20:57;10.90;99.90
25582;DHT22;13462;50.764;4.332;2023-04-01T10:23:39;11.10;99.90
25582;DHT22;13462;50.764;4.332;2023-04-01T10:26:14;11.00;99.90
25582;DHT22;13462;50.764;4.332;2023-04-01T10:31:51;11.30;99.90
25582;DHT22;13462;50.764;4.332;2023-04-01T10:36:52;11.40;99.90
25582;DHT22;13462;50.764;4.332;2023-04-01T10:52:41;11.30;99.90
25582;DHT22;13462;50.764;4.332;2023-04-01T11:00:20;11.30;99.90
25582;DHT22;13462;50.764;4.332;2023-04-01T11:26:17;11.60;99.90
25582;DHT22;13462;50.764;4.332;2023-04-01T11:29:09;11.80;99.90
25582;DHT22;13462;50.764;4.332;2023-04-01T11:34:13;11.80;99.90
25582;DHT22;13462;50.764;4.332;2023-04-01T11:36:51;11.90;99.90
25582;DHT22;13462;50.764;4.332;2023-04-01T11:39:31;11.80;99.90
25582;DHT22;13462;50.764;4.332;2023-04-01T11:44:43;11.40;99.90
25582;DHT22;13462;50.764;4.332;2023-04-01T11:47:20;11.50;99.90
25582;DHT22;13462;50.764;4.332;2023-04-01T11:49:53;11.70;99.90
25582;DHT22;13462;50.764;4.332;2023-04-01T12:07:45;11.90;99.90
25582;DHT22;13462;50.764;4.332;2023-04-01T12:10:19;12.10;99.90
25582;DHT22;13462;50.764;4.332;2023-04-01T12:17:40;12.10;99.90
25582;DHT22;13462;50.764;4.332;2023-04-01T12:25:07;11.60;99.90
25582;DHT22;13462;50.764;4.332;2023-04-01T12:27:43;11.60;99.90
25582;DHT22;13462;50.764;4.332;2023-04-01T12:35:59;11.00;99.90
25582;DHT22;13462;50.764;4.332;2023-04-01T12:46:24;10.60;99.90
25582;DHT22;13462;50.764;4.332;2023-04-01T12:54:32;10.50;99.90
25582;DHT22;13462;50.764;4.332;2023-04-01T13:05:09;10.70;99.90
25582;DHT22;13462;50.764;4.332;2023-04-01T13:07:45;10.80;99.90
25582;DHT22;13462;50.764;4.332;2023-04-01T13:10:16;10.80;99.90
25582;DHT22;13462;50.764;4.332;2023-04-01T13:12:47;10.80;99.90
25582;DHT22;13462;50.764;4.332;2023-04-01T13:23:35;10.90;99.90
25582;DHT22;13462;50.764;4.332;2023-04-01T13:42:16;10.60;99.90
25582;DHT22;13462;50.764;4.332;2023-04-01T13:44:48;10.60;99.90
25582;DHT22;13462;50.764;4.332;2023-04-01T13:49:57;10.60;99.90
25582;DHT22;13462;50.764;4.332;2023-04-01T13:55:11;10.50;99.90
25582;DHT22;13462;50.764;4.332;2023-04-01T13:57:52;10.40;99.90
25582;DHT22;13462;50.764;4.332;2023-04-01T14:00:29;10.40;99.90
25582;DHT22;13462;50.764;4.332;2023-04-01T14:05:56;10.30;99.90
25582;DHT22;13462;50.764;4.332;2023-04-01T14:11:14;10.20;99.90
25582;DHT22;13462;50.764;4.332;2023-04-01T14:16:14;10.20;99.90
25582;DHT22;13462;50.764;4.332;2023-04-01T14:21:17;10.00;99.90
25582;DHT22;13462;50.764;4.332;2023-04-01T14:34:09;10.40;99.90
25582;DHT22;13462;50.764;4.332;2023-04-01T14:47:39;10.70;99.90
25582;DHT22;13462;50.764;4.332;2023-04-01T14:50:09;10.70;99.90
25582;DHT22;13462;50.764;4.332;2023-04-01T14:52:40;10.70;99.90
25582;DHT22;13462;50.764;4.332;2023-04-01T14:57:58;10.50;99.90
25582;DHT22;13462;50.764;4.332;2023-04-01T15:00:24;10.50;99.90
25582;DHT22;13462;50.764;4.332;2023-04-01T15:02:57;10.50;99.90
25582;DHT22;13462;50.764;4.332;2023-04-01T15:05:32;10.50;99.90
25582;DHT22;13462;50.764;4.332;2023-04-01T15:13:25;10.60;99.90
25582;DHT22;13462;50.764;4.332;2023-04-01T15:23:56;10.40;99.90
25582;DHT22;13462;50.764;4.332;2023-04-01T15:31:37;10.50;99.90
25582;DHT22;13462;50.764;4.332;2023-04-01T15:34:17;10.50;99.90
25582;DHT22;13462;50.764;4.332;2023-04-01T15:41:38;10.40;99.90
25582;DHT22;13462;50.764;4.332;2023-04-01T15:46:50;10.40;99.90
25582;DHT22;13462;50.764;4.332;2023-04-01T15:52:05;10.20;99.90
25582;DHT22;13462;50.764;4.332;2023-04-01T15:54:32;10.20;99.90
25582;DHT22;13462;50.764;4.332;2023-04-01T15:57:09;10.30;99.90
25582;DHT22;13462;50.764;4.332;2023-04-01T15:59:46;10.40;99.90
25582;DHT22;13462;50.764;4.332;2023-04-01T16:04:51;10.30;99.90
25582;DHT22;13462;50.764;4.332;2023-04-01T16:12:36;10.20;99.90
25582;DHT22;13462;50.764;4.332;2023-04-01T16:25:40;10.10;99.90
25582;DHT22;13462;50.764;4.332;2023-04-01T16:33:09;9.90;99.90
25582;DHT22;13462;50.764;4.332;2023-04-01T16:43:57;9.60;99.90
25582;DHT22;13462;50.764;4.332;2023-04-01T16:46:34;9.50;99.90
25582;DHT22;13462;50.764;4.332;2023-04-01T16:51:47;9.70;99.90
25582;DHT22;13462;50.764;4.332;2023-04-01T16:54:59;9.70;99.90
25582;DHT22;13462;50.764;4.332;2023-04-01T16:57:03;9.70;99.90
25582;DHT22;13462;50.764;4.332;2023-04-01T17:07:29;9.60;99.90
25582;DHT22;13462;50.764;4.332;2023-04-01T17:20:12;9.60;99.90
25582;DHT22;13462;50.764;4.332;2023-04-01T17:22:49;9.60;99.90
25582;DHT22;13462;50.764;4.332;2023-04-01T17:25:24;9.70;99.90
25582;DHT22;13462;50.764;4.332;2023-04-01T17:27:57;9.70;99.90
25582;DHT22;13462;50.764;4.332;2023-04-01T17:30:28;9.70;99.90
25582;DHT22;13462;50.764;4.332;2023-04-01T17:46:09;9.60;99.90
25582;DHT22;13462;50.764;4.332;2023-04-01T17:48:47;9.80;99.90
25582;DHT22;13462;50.764;4.332;2023-04-01T17:56:11;9.60;99.90
25582;DHT22;13462;50.764;4.332;2023-04-01T17:58:44;9.60;99.90
25582;DHT22;13462;50.764;4.332;2023-04-01T18:01:18;9.50;99.90
25582;DHT22;13462;50.764;4.332;2023-04-01T18:06:19;9.40;99.90
25582;DHT22;13462;50.764;4.332;2023-04-01T18:08:57;9.50;99.90
25582;DHT22;13462;50.764;4.332;2023-04-01T18:13:58;9.50;99.90
25582;DHT22;13462;50.764;4.332;2023-04-01T18:22:15;9.60;99.90
25582;DHT22;13462;50.764;4.332;2023-04-01T18:24:44;9.70;99.90
25582;DHT22;13462;50.764;4.332;2023-04-01T18:29:46;9.60;99.90
25582;DHT22;13462;50.764;4.332;2023-04-01T18:34:53;9.60;99.90
25582;DHT22;13462;50.764;4.332;2023-04-01T18:39:49;9.60;99.90
25582;DHT22;13462;50.764;4.332;2023-04-01T18:45:00;9.70;99.90
25582;DHT22;13462;50.764;4.332;2023-04-01T18:52:30;9.70;99.90
25582;DHT22;13462;50.764;4.332;2023-04-01T19:00:19;9.70;99.90
25582;DHT22;13462;50.764;4.332;2023-04-01T19:05:44;9.60;99.90
25582;DHT22;13462;50.764;4.332;2023-04-01T19:08:31;9.60;99.90
25582;DHT22;13462;50.764;4.332;2023-04-01T19:13:44;9.60;99.90
25582;DHT22;13462;50.764;4.332;2023-04-01T19:26:27;9.60;99.90
25582;DHT22;13462;50.764;4.332;2023-04-01T19:34:28;9.60;99.90
25582;DHT22;13462;50.764;4.332;2023-04-01T19:37:02;9.60;99.90
25582;DHT22;13462;50.764;4.332;2023-04-01T19:42:07;9.50;99.90
25582;DHT22;13462;50.764;4.332;2023-04-01T19:44:38;9.50;99.90
25582;DHT22;13462;50.764;4.332;2023-04-01T19:49:56;9.50;99.90
25582;DHT22;13462;50.764;4.332;2023-04-01T19:52:31;9.50;99.90
25582;DHT22;13462;50.764;4.332;2023-04-01T20:02:39;9.50;99.90
25582;DHT22;13462;50.764;4.332;2023-04-01T20:05:55;9.50;99.90
25582;DHT22;13462;50.764;4.332;2023-04-01T20:10:34;9.40;99.90
25582;DHT22;13462;50.764;4.332;2023-04-01T20:15:43;9.40;99.90
25582;DHT22;13462;50.764;4.332;2023-04-01T20:18:23;9.40;99.90
25582;DHT22;13462;50.764;4.332;2023-04-01T20:21:00;9.40;99.90
25582;DHT22;13462;50.764;4.332;2023-04-01T20:26:11;9.50;99.90
25582;DHT22;13462;50.764;4.332;2023-04-01T20:31:36;9.60;99.90
25582;DHT22;13462;50.764;4.332;2023-04-01T20:44:20;9.40;99.90
25582;DHT22;13462;50.764;4.332;2023-04-01T20:46:58;9.40;99.90
25582;DHT22;13462;50.764;4.332;2023-04-01T20:54:43;9.60;99.90
25582;DHT22;13462;50.764;4.332;2023-04-01T20:57:16;9.50;99.90
25582;DHT22;13462;50.764;4.332;2023-04-01T20:59:48;9.60;99.90
25582;DHT22;13462;50.764;4.332;2023-04-01T21:07:25;9.50;99.90
25582;DHT22;13462;50.764;4.332;2023-04-01T21:10:17;9.50;99.90
25582;DHT22;13462;50.764;4.332;2023-04-01T21:12:56;9.60;99.90
25582;DHT22;13462;50.764;4.332;2023-04-01T21:15:48;9.70;99.90
25582;DHT22;13462;50.764;4.332;2023-04-01T21:18:18;9.60;99.90
25582;DHT22;13462;50.764;4.332;2023-04-01T21:20:56;9.60;99.90
25582;DHT22;13462;50.764;4.332;2023-04-01T21:26:23;9.50;99.90
25582;DHT22;13462;50.764;4.332;2023-04-01T21:40:02;9.70;99.90
25582;DHT22;13462;50.764;4.332;2023-04-01T21:42:32;9.60;99.90
25582;DHT22;13462;50.764;4.332;2023-04-01T21:52:42;9.60;99.90
25582;DHT22;13462;50.764;4.332;2023-04-01T22:00:43;9.70;99.90
25582;DHT22;13462;50.764;4.332;2023-04-01T22:08:32;9.70;99.90
25582;DHT22;13462;50.764;4.332;2023-04-01T22:11:04;9.60;99.90
25582;DHT22;13462;50.764;4.332;2023-04-01T22:13:35;9.70;99.90
25582;DHT22;13462;50.764;4.332;2023-04-01T22:16:18;9.70;99.90
25582;DHT22;13462;50.764;4.332;2023-04-01T22:18:59;9.60;99.90
25582;DHT22;13462;50.764;4.332;2023-04-01T22:21:36;9.70;99.90
25582;DHT22;13462;50.764;4.332;2023-04-01T22:26:33;9.80;99.90
25582;DHT22;13462;50.764;4.332;2023-04-01T22:31:55;9.80;99.90
25582;DHT22;13462;50.764;4.332;2023-04-01T22:34:34;9.80;99.90
25582;DHT22;13462;50.764;4.332;2023-04-01T22:37:08;9.80;99.90
25582;DHT22;13462;50.764;4.332;2023-04-01T22:39:49;9.90;99.90
25582;DHT22;13462;50.764;4.332;2023-04-01T22:42:20;10.00;99.90
25582;DHT22;13462;50.764;4.332;2023-04-01T22:50:02;9.90;99.90
25582;DHT22;13462;50.764;4.332;2023-04-01T22:54:58;10.00;99.90
25582;DHT22;13462;50.764;4.332;2023-04-01T22:57:43;9.90;99.90
25582;DHT22;13462;50.764;4.332;2023-04-01T23:02:40;9.90;99.90
25582;DHT22;13462;50.764;4.332;2023-04-01T23:05:09;9.90;99.90
25582;DHT22;13462;50.764;4.332;2023-04-01T23:08:25;9.80;99.90
25582;DHT22;13462;50.764;4.332;2023-04-01T23:12:47;9.80;99.90
25582;DHT22;13462;50.764;4.332;2023-04-01T23:15:13;9.90;99.90
25582;DHT22;13462;50.764;4.332;2023-04-01T23:17:42;9.80;99.90
25582;DHT22;13462;50.764;4.332;2023-04-01T23:22:55;9.80;99.90
25582;DHT22;13462;50.764;4.332;2023-04-01T23:28:17;9.80;99.90
25582;DHT22;13462;50.764;4.332;2023-04-01T23:38:20;9.70;99.90
25582;DHT22;13462;50.764;4.332;2023-04-01T23:40:50;9.60;99.90
25582;DHT22;13462;50.764;4.332;2023-04-01T23:43:21;9.60;99.90
25582;DHT22;13462;50.764;4.332;2023-04-01T23:45:47;9.70;99.90
25582;DHT22;13462;50.764;4.332;2023-04-01T23:48:13;9.70;99.90
25582;DHT22;13462;50.764;4.332;2023-04-01T23:50:40;9.70;99.90
25582;DHT22;13462;50.764;4.332;2023-04-01T23:53:12;9.70;99.90
25582;DHT22;13462;50.764;4.332;2023-04-01T23:55:41;9.70;99.90
